Terminal Aerodrome Forecast
Issued by NWS

Home | Current Version | Previous Version | Text Only | Print | Product List | Glossary On
Versions: 1 2 3 4 5 6 7 8 9 10 11 12 13 14 15 16 17 18 19 20 21 22 23 24 25 26 27 28 29 30 31
000
FTUS42 KRAH 300535
TAFINT
TAF
KINT 300535Z 3006/3106 24006KT P6SM OVC080
     FM300800 29008KT P6SM OVC040
     FM301500 32018G30KT P6SM FEW040
     FM302300 32008KT P6SM SKC=

USA.gov is the U.S. government's official web portal to all federal, state and local government web resources and services.